sensor_id;sensor_type;location;lat;lon;timestamp;temperature;humidity
14397;DHT22;50653;47.810;13.022;2023-09-19T00:01:42;17.40;99.90
14397;DHT22;50653;47.810;13.022;2023-09-19T00:04:11;17.30;99.90
14397;DHT22;50653;47.810;13.022;2023-09-19T00:06:38;17.30;99.90
14397;DHT22;50653;47.810;13.022;2023-09-19T00:09:04;17.30;99.90
14397;DHT22;50653;47.810;13.022;2023-09-19T00:11:30;17.20;99.90
14397;DHT22;50653;47.810;13.022;2023-09-19T00:13:57;17.10;99.90
14397;DHT22;50653;47.810;13.022;2023-09-19T00:16:25;17.20;99.90
14397;DHT22;50653;47.810;13.022;2023-09-19T00:18:51;17.30;99.90
14397;DHT22;50653;47.810;13.022;2023-09-19T00:21:18;17.20;99.90
14397;DHT22;50653;47.810;13.022;2023-09-19T00:23:44;17.20;99.90
14397;DHT22;50653;47.810;13.022;2023-09-19T00:26:10;17.20;99.90
14397;DHT22;50653;47.810;13.022;2023-09-19T00:28:37;17.10;99.90
14397;DHT22;50653;47.810;13.022;2023-09-19T00:31:03;17.00;99.90
14397;DHT22;50653;47.810;13.022;2023-09-19T00:33:31;17.10;99.90
14397;DHT22;50653;47.810;13.022;2023-09-19T00:35:57;17.00;99.90
14397;DHT22;50653;47.810;13.022;2023-09-19T00:38:23;16.80;99.90
14397;DHT22;50653;47.810;13.022;2023-09-19T00:40:53;16.80;99.90
14397;DHT22;50653;47.810;13.022;2023-09-19T00:43:21;16.90;99.90
14397;DHT22;50653;47.810;13.022;2023-09-19T00:45:50;16.80;99.90
14397;DHT22;50653;47.810;13.022;2023-09-19T00:48:17;16.90;99.90
14397;DHT22;50653;47.810;13.022;2023-09-19T00:50:46;16.90;99.90
14397;DHT22;50653;47.810;13.022;2023-09-19T00:53:15;17.00;99.90
14397;DHT22;50653;47.810;13.022;2023-09-19T00:55:44;16.90;99.90
14397;DHT22;50653;47.810;13.022;2023-09-19T00:58:11;16.90;99.90
14397;DHT22;50653;47.810;13.022;2023-09-19T01:00:37;17.00;99.90
14397;DHT22;50653;47.810;13.022;2023-09-19T01:03:04;17.10;99.90
14397;DHT22;50653;47.810;13.022;2023-09-19T01:05:33;17.00;99.90
14397;DHT22;50653;47.810;13.022;2023-09-19T01:07:59;17.00;99.90
14397;DHT22;50653;47.810;13.022;2023-09-19T01:10:25;17.20;99.90
14397;DHT22;50653;47.810;13.022;2023-09-19T01:16:08;17.10;99.90
14397;DHT22;50653;47.810;13.022;2023-09-19T01:18:51;17.20;99.90
14397;DHT22;50653;47.810;13.022;2023-09-19T01:21:32;17.10;99.90
14397;DHT22;50653;47.810;13.022;2023-09-19T01:29:42;17.10;99.90
14397;DHT22;50653;47.810;13.022;2023-09-19T01:32:11;17.20;99.90
14397;DHT22;50653;47.810;13.022;2023-09-19T01:34:52;17.20;99.90
14397;DHT22;50653;47.810;13.022;2023-09-19T01:37:20;17.20;99.90
14397;DHT22;50653;47.810;13.022;2023-09-19T01:40:02;17.10;99.90
14397;DHT22;50653;47.810;13.022;2023-09-19T01:45:50;16.90;99.90
14397;DHT22;50653;47.810;13.022;2023-09-19T01:48:57;17.00;99.90
14397;DHT22;50653;47.810;13.022;2023-09-19T01:51:22;17.00;99.90
14397;DHT22;50653;47.810;13.022;2023-09-19T01:54:10;17.10;99.90
14397;DHT22;50653;47.810;13.022;2023-09-19T01:57:04;17.10;99.90
14397;DHT22;50653;47.810;13.022;2023-09-19T01:59:40;17.10;99.90
14397;DHT22;50653;47.810;13.022;2023-09-19T02:02:07;17.10;99.90
14397;DHT22;50653;47.810;13.022;2023-09-19T02:04:34;17.00;99.90
14397;DHT22;50653;47.810;13.022;2023-09-19T02:07:00;17.00;99.90
14397;DHT22;50653;47.810;13.022;2023-09-19T02:09:26;17.10;99.90
14397;DHT22;50653;47.810;13.022;2023-09-19T02:11:52;17.10;99.90
14397;DHT22;50653;47.810;13.022;2023-09-19T02:14:18;17.20;99.90
14397;DHT22;50653;47.810;13.022;2023-09-19T02:16:45;17.10;99.90
14397;DHT22;50653;47.810;13.022;2023-09-19T02:19:11;17.10;99.90
14397;DHT22;50653;47.810;13.022;2023-09-19T02:21:36;17.20;99.90
14397;DHT22;50653;47.810;13.022;2023-09-19T02:24:06;17.30;99.90
14397;DHT22;50653;47.810;13.022;2023-09-19T02:26:33;17.30;99.90
14397;DHT22;50653;47.810;13.022;2023-09-19T02:29:01;17.30;99.90
14397;DHT22;50653;47.810;13.022;2023-09-19T02:31:30;17.30;99.90
14397;DHT22;50653;47.810;13.022;2023-09-19T02:33:56;17.30;99.90
14397;DHT22;50653;47.810;13.022;2023-09-19T02:36:22;17.30;99.90
14397;DHT22;50653;47.810;13.022;2023-09-19T02:38:49;17.30;99.90
14397;DHT22;50653;47.810;13.022;2023-09-19T02:41:15;17.30;99.90
14397;DHT22;50653;47.810;13.022;2023-09-19T02:43:41;17.20;99.90
14397;DHT22;50653;47.810;13.022;2023-09-19T02:46:08;17.30;99.90
14397;DHT22;50653;47.810;13.022;2023-09-19T02:48:34;17.30;99.90
14397;DHT22;50653;47.810;13.022;2023-09-19T02:51:01;17.30;99.90
14397;DHT22;50653;47.810;13.022;2023-09-19T02:53:28;17.10;99.90
14397;DHT22;50653;47.810;13.022;2023-09-19T02:55:56;17.20;99.90
14397;DHT22;50653;47.810;13.022;2023-09-19T02:58:22;17.30;99.90
14397;DHT22;50653;47.810;13.022;2023-09-19T03:00:49;17.30;99.90
14397;DHT22;50653;47.810;13.022;2023-09-19T03:03:15;17.30;99.90
14397;DHT22;50653;47.810;13.022;2023-09-19T03:05:41;17.40;99.90
14397;DHT22;50653;47.810;13.022;2023-09-19T03:08:15;17.40;99.90
14397;DHT22;50653;47.810;13.022;2023-09-19T03:10:41;17.40;99.90
14397;DHT22;50653;47.810;13.022;2023-09-19T03:13:06;17.30;99.90
14397;DHT22;50653;47.810;13.022;2023-09-19T03:15:35;17.20;99.90
14397;DHT22;50653;47.810;13.022;2023-09-19T03:18:04;17.20;99.90
14397;DHT22;50653;47.810;13.022;2023-09-19T03:20:32;17.20;99.90
14397;DHT22;50653;47.810;13.022;2023-09-19T03:22:57;17.20;99.90
14397;DHT22;50653;47.810;13.022;2023-09-19T03:25:23;17.20;99.90
14397;DHT22;50653;47.810;13.022;2023-09-19T03:27:50;17.20;99.90
14397;DHT22;50653;47.810;13.022;2023-09-19T03:30:17;17.20;99.90
14397;DHT22;50653;47.810;13.022;2023-09-19T03:32:49;17.20;99.90
14397;DHT22;50653;47.810;13.022;2023-09-19T03:35:16;17.20;99.90
14397;DHT22;50653;47.810;13.022;2023-09-19T03:37:43;17.30;99.90
14397;DHT22;50653;47.810;13.022;2023-09-19T03:40:10;17.40;99.90
14397;DHT22;50653;47.810;13.022;2023-09-19T03:42:40;17.40;99.90
14397;DHT22;50653;47.810;13.022;2023-09-19T03:45:08;17.40;99.90
14397;DHT22;50653;47.810;13.022;2023-09-19T03:47:39;17.40;99.90
14397;DHT22;50653;47.810;13.022;2023-09-19T03:50:07;17.40;99.90
14397;DHT22;50653;47.810;13.022;2023-09-19T03:52:34;17.30;99.90
14397;DHT22;50653;47.810;13.022;2023-09-19T03:55:00;17.30;99.90
14397;DHT22;50653;47.810;13.022;2023-09-19T03:57:29;17.20;99.90
14397;DHT22;50653;47.810;13.022;2023-09-19T03:59:54;17.20;99.90
14397;DHT22;50653;47.810;13.022;2023-09-19T04:02:21;17.20;99.90
14397;DHT22;50653;47.810;13.022;2023-09-19T04:04:51;17.30;99.90
14397;DHT22;50653;47.810;13.022;2023-09-19T04:07:17;17.30;99.90
14397;DHT22;50653;47.810;13.022;2023-09-19T04:09:45;17.30;99.90
14397;DHT22;50653;47.810;13.022;2023-09-19T04:12:11;17.30;99.90
14397;DHT22;50653;47.810;13.022;2023-09-19T04:14:37;17.30;99.90
14397;DHT22;50653;47.810;13.022;2023-09-19T04:17:04;17.30;99.90
14397;DHT22;50653;47.810;13.022;2023-09-19T04:19:31;17.40;99.90
14397;DHT22;50653;47.810;13.022;2023-09-19T04:21:57;17.30;99.90
14397;DHT22;50653;47.810;13.022;2023-09-19T04:24:22;17.30;99.90
14397;DHT22;50653;47.810;13.022;2023-09-19T04:26:48;17.40;99.90
14397;DHT22;50653;47.810;13.022;2023-09-19T04:29:14;17.40;99.90
14397;DHT22;50653;47.810;13.022;2023-09-19T04:31:40;17.50;99.90
14397;DHT22;50653;47.810;13.022;2023-09-19T04:34:09;17.40;99.90
14397;DHT22;50653;47.810;13.022;2023-09-19T04:36:35;17.30;99.90
14397;DHT22;50653;47.810;13.022;2023-09-19T04:39:03;17.20;99.90
14397;DHT22;50653;47.810;13.022;2023-09-19T04:41:30;17.10;99.90
14397;DHT22;50653;47.810;13.022;2023-09-19T04:43:56;17.30;99.90
14397;DHT22;50653;47.810;13.022;2023-09-19T04:46:22;17.20;99.90
14397;DHT22;50653;47.810;13.022;2023-09-19T04:48:47;17.00;99.90
14397;DHT22;50653;47.810;13.022;2023-09-19T04:51:13;17.00;99.90
14397;DHT22;50653;47.810;13.022;2023-09-19T04:53:40;17.10;99.90
14397;DHT22;50653;47.810;13.022;2023-09-19T04:56:06;17.10;99.90
14397;DHT22;50653;47.810;13.022;2023-09-19T04:58:33;17.20;99.90
14397;DHT22;50653;47.810;13.022;2023-09-19T05:00:59;17.10;99.90
14397;DHT22;50653;47.810;13.022;2023-09-19T05:03:25;17.20;99.90
14397;DHT22;50653;47.810;13.022;2023-09-19T05:05:51;17.20;99.90
14397;DHT22;50653;47.810;13.022;2023-09-19T05:08:16;17.20;99.90
14397;DHT22;50653;47.810;13.022;2023-09-19T05:10:42;17.20;99.90
14397;DHT22;50653;47.810;13.022;2023-09-19T05:13:07;17.20;99.90
14397;DHT22;50653;47.810;13.022;2023-09-19T05:15:34;17.20;99.90
14397;DHT22;50653;47.810;13.022;2023-09-19T05:18:01;17.20;99.90
14397;DHT22;50653;47.810;13.022;2023-09-19T05:20:26;17.20;99.90
14397;DHT22;50653;47.810;13.022;2023-09-19T05:23:05;17.10;99.90
14397;DHT22;50653;47.810;13.022;2023-09-19T05:25:33;17.10;99.90
14397;DHT22;50653;47.810;13.022;2023-09-19T05:28:03;17.10;99.90
14397;DHT22;50653;47.810;13.022;2023-09-19T05:30:32;17.00;99.90
14397;DHT22;50653;47.810;13.022;2023-09-19T05:32:58;17.00;99.90
14397;DHT22;50653;47.810;13.022;2023-09-19T05:35:24;17.20;99.90
14397;DHT22;50653;47.810;13.022;2023-09-19T05:37:51;17.20;99.90
14397;DHT22;50653;47.810;13.022;2023-09-19T05:40:20;17.20;99.90
14397;DHT22;50653;47.810;13.022;2023-09-19T05:42:46;17.20;99.90
14397;DHT22;50653;47.810;13.022;2023-09-19T05:45:13;17.20;99.90
14397;DHT22;50653;47.810;13.022;2023-09-19T05:47:42;17.10;99.90
14397;DHT22;50653;47.810;13.022;2023-09-19T05:50:09;17.20;99.90
14397;DHT22;50653;47.810;13.022;2023-09-19T05:52:40;17.20;99.90
14397;DHT22;50653;47.810;13.022;2023-09-19T05:55:08;17.20;99.90
14397;DHT22;50653;47.810;13.022;2023-09-19T05:57:35;17.20;99.90
14397;DHT22;50653;47.810;13.022;2023-09-19T06:00:00;17.30;99.90
14397;DHT22;50653;47.810;13.022;2023-09-19T06:02:26;17.20;99.90
14397;DHT22;50653;47.810;13.022;2023-09-19T06:04:54;17.30;99.90
14397;DHT22;50653;47.810;13.022;2023-09-19T06:07:22;17.30;99.90
14397;DHT22;50653;47.810;13.022;2023-09-19T06:09:48;17.40;99.90
14397;DHT22;50653;47.810;13.022;2023-09-19T06:12:14;17.40;99.90
14397;DHT22;50653;47.810;13.022;2023-09-19T06:14:43;17.30;99.90
14397;DHT22;50653;47.810;13.022;2023-09-19T06:17:08;17.40;99.90
14397;DHT22;50653;47.810;13.022;2023-09-19T06:19:34;17.40;99.90
14397;DHT22;50653;47.810;13.022;2023-09-19T06:22:00;17.30;99.90
14397;DHT22;50653;47.810;13.022;2023-09-19T06:24:25;17.40;99.90
14397;DHT22;50653;47.810;13.022;2023-09-19T06:26:51;17.40;99.90
14397;DHT22;50653;47.810;13.022;2023-09-19T06:29:18;17.40;99.90
14397;DHT22;50653;47.810;13.022;2023-09-19T06:31:46;17.50;99.90
14397;DHT22;50653;47.810;13.022;2023-09-19T06:34:12;17.50;99.90
14397;DHT22;50653;47.810;13.022;2023-09-19T06:36:41;17.40;99.90
14397;DHT22;50653;47.810;13.022;2023-09-19T06:39:07;17.40;99.90
14397;DHT22;50653;47.810;13.022;2023-09-19T06:41:37;17.40;99.90
14397;DHT22;50653;47.810;13.022;2023-09-19T06:44:10;17.50;99.90
14397;DHT22;50653;47.810;13.022;2023-09-19T06:46:35;17.60;99.90
14397;DHT22;50653;47.810;13.022;2023-09-19T06:49:04;17.70;99.90
14397;DHT22;50653;47.810;13.022;2023-09-19T06:51:32;17.70;99.90
14397;DHT22;50653;47.810;13.022;2023-09-19T06:54:01;17.80;99.90
14397;DHT22;50653;47.810;13.022;2023-09-19T06:56:27;17.90;99.90
14397;DHT22;50653;47.810;13.022;2023-09-19T06:58:52;17.80;99.90
14397;DHT22;50653;47.810;13.022;2023-09-19T07:01:18;17.90;99.90
14397;DHT22;50653;47.810;13.022;2023-09-19T07:03:44;18.00;99.90
14397;DHT22;50653;47.810;13.022;2023-09-19T07:06:11;18.00;99.90
14397;DHT22;50653;47.810;13.022;2023-09-19T07:08:36;18.10;99.90
14397;DHT22;50653;47.810;13.022;2023-09-19T07:11:04;18.10;99.90
14397;DHT22;50653;47.810;13.022;2023-09-19T07:13:31;18.20;99.90
14397;DHT22;50653;47.810;13.022;2023-09-19T07:15:58;18.20;99.90
14397;DHT22;50653;47.810;13.022;2023-09-19T07:18:25;18.20;99.90
14397;DHT22;50653;47.810;13.022;2023-09-19T07:20:51;18.40;99.90
14397;DHT22;50653;47.810;13.022;2023-09-19T07:23:26;18.50;99.90
14397;DHT22;50653;47.810;13.022;2023-09-19T07:25:57;18.60;99.90
14397;DHT22;50653;47.810;13.022;2023-09-19T07:28:24;18.70;99.90
14397;DHT22;50653;47.810;13.022;2023-09-19T07:30:49;18.80;99.90
14397;DHT22;50653;47.810;13.022;2023-09-19T07:33:15;18.80;99.90
14397;DHT22;50653;47.810;13.022;2023-09-19T07:35:47;18.80;99.90
14397;DHT22;50653;47.810;13.022;2023-09-19T07:38:13;18.90;99.90
14397;DHT22;50653;47.810;13.022;2023-09-19T07:40:39;18.80;99.90
14397;DHT22;50653;47.810;13.022;2023-09-19T07:43:05;19.00;99.90
14397;DHT22;50653;47.810;13.022;2023-09-19T07:45:32;19.00;99.90
14397;DHT22;50653;47.810;13.022;2023-09-19T07:47:58;19.00;99.90
14397;DHT22;50653;47.810;13.022;2023-09-19T07:50:27;19.10;99.90
14397;DHT22;50653;47.810;13.022;2023-09-19T07:52:53;19.10;99.90
14397;DHT22;50653;47.810;13.022;2023-09-19T07:55:22;19.10;99.90
14397;DHT22;50653;47.810;13.022;2023-09-19T07:57:54;19.10;99.90
14397;DHT22;50653;47.810;13.022;2023-09-19T08:00:19;19.20;99.90
14397;DHT22;50653;47.810;13.022;2023-09-19T08:02:45;19.20;99.90
14397;DHT22;50653;47.810;13.022;2023-09-19T08:05:12;19.20;99.90
14397;DHT22;50653;47.810;13.022;2023-09-19T08:07:41;19.20;99.90
14397;DHT22;50653;47.810;13.022;2023-09-19T08:10:08;19.30;99.90
14397;DHT22;50653;47.810;13.022;2023-09-19T08:12:41;19.30;99.90
14397;DHT22;50653;47.810;13.022;2023-09-19T08:15:20;19.30;99.90
14397;DHT22;50653;47.810;13.022;2023-09-19T08:17:46;19.40;99.90
14397;DHT22;50653;47.810;13.022;2023-09-19T08:20:12;19.40;99.90
14397;DHT22;50653;47.810;13.022;2023-09-19T08:22:52;19.40;99.90
14397;DHT22;50653;47.810;13.022;2023-09-19T08:25:19;19.50;99.90
14397;DHT22;50653;47.810;13.022;2023-09-19T08:27:46;19.40;99.90
14397;DHT22;50653;47.810;13.022;2023-09-19T08:30:19;19.40;99.90
14397;DHT22;50653;47.810;13.022;2023-09-19T08:33:01;19.40;99.90
14397;DHT22;50653;47.810;13.022;2023-09-19T08:35:28;19.40;99.90
14397;DHT22;50653;47.810;13.022;2023-09-19T08:37:54;19.40;99.90
14397;DHT22;50653;47.810;13.022;2023-09-19T08:40:21;19.50;99.90
14397;DHT22;50653;47.810;13.022;2023-09-19T08:42:48;19.40;99.90
14397;DHT22;50653;47.810;13.022;2023-09-19T08:45:15;19.50;99.90
14397;DHT22;50653;47.810;13.022;2023-09-19T08:47:46;19.50;99.90
14397;DHT22;50653;47.810;13.022;2023-09-19T08:50:26;19.50;99.90
14397;DHT22;50653;47.810;13.022;2023-09-19T08:52:55;19.50;99.90
14397;DHT22;50653;47.810;13.022;2023-09-19T08:55:27;19.50;99.90
14397;DHT22;50653;47.810;13.022;2023-09-19T08:58:03;19.50;99.90
14397;DHT22;50653;47.810;13.022;2023-09-19T09:00:30;19.50;99.90
14397;DHT22;50653;47.810;13.022;2023-09-19T09:02:57;19.50;99.90
14397;DHT22;50653;47.810;13.022;2023-09-19T09:05:24;19.60;99.90
14397;DHT22;50653;47.810;13.022;2023-09-19T09:07:52;19.60;99.90
14397;DHT22;50653;47.810;13.022;2023-09-19T09:10:21;19.60;99.90
14397;DHT22;50653;47.810;13.022;2023-09-19T09:12:54;19.70;99.90
14397;DHT22;50653;47.810;13.022;2023-09-19T09:15:23;19.70;99.90
14397;DHT22;50653;47.810;13.022;2023-09-19T09:17:49;19.80;99.90
14397;DHT22;50653;47.810;13.022;2023-09-19T09:20:22;19.90;99.90
14397;DHT22;50653;47.810;13.022;2023-09-19T09:22:52;20.00;99.90
14397;DHT22;50653;47.810;13.022;2023-09-19T09:25:53;20.00;99.90
14397;DHT22;50653;47.810;13.022;2023-09-19T09:28:27;20.00;99.90
14397;DHT22;50653;47.810;13.022;2023-09-19T09:30:54;20.10;99.90
14397;DHT22;50653;47.810;13.022;2023-09-19T09:33:20;20.10;99.90
14397;DHT22;50653;47.810;13.022;2023-09-19T09:35:51;20.10;99.90
14397;DHT22;50653;47.810;13.022;2023-09-19T09:38:21;20.20;99.90
14397;DHT22;50653;47.810;13.022;2023-09-19T09:40:52;20.30;99.90
14397;DHT22;50653;47.810;13.022;2023-09-19T09:43:39;20.30;99.90
14397;DHT22;50653;47.810;13.022;2023-09-19T09:46:17;20.30;99.90
14397;DHT22;50653;47.810;13.022;2023-09-19T09:49:05;20.30;99.90
14397;DHT22;50653;47.810;13.022;2023-09-19T09:54:23;20.40;99.90
14397;DHT22;50653;47.810;13.022;2023-09-19T09:57:03;20.50;99.90
14397;DHT22;50653;47.810;13.022;2023-09-19T10:02:39;20.60;99.90
14397;DHT22;50653;47.810;13.022;2023-09-19T10:05:17;20.60;99.90
14397;DHT22;50653;47.810;13.022;2023-09-19T10:07:52;20.60;99.90
14397;DHT22;50653;47.810;13.022;2023-09-19T10:10:41;20.70;99.90
14397;DHT22;50653;47.810;13.022;2023-09-19T10:13:07;20.70;99.90
14397;DHT22;50653;47.810;13.022;2023-09-19T10:15:38;20.70;99.90
14397;DHT22;50653;47.810;13.022;2023-09-19T10:18:07;20.70;99.90
14397;DHT22;50653;47.810;13.022;2023-09-19T10:20:45;20.80;99.90
14397;DHT22;50653;47.810;13.022;2023-09-19T10:23:12;20.80;99.90
14397;DHT22;50653;47.810;13.022;2023-09-19T10:25:42;20.90;99.90
14397;DHT22;50653;47.810;13.022;2023-09-19T10:28:11;20.90;99.90
14397;DHT22;50653;47.810;13.022;2023-09-19T10:30:44;21.00;99.90
14397;DHT22;50653;47.810;13.022;2023-09-19T10:33:12;20.90;99.90
14397;DHT22;50653;47.810;13.022;2023-09-19T10:35:45;21.00;99.90
14397;DHT22;50653;47.810;13.022;2023-09-19T10:38:13;21.00;99.90
14397;DHT22;50653;47.810;13.022;2023-09-19T10:45:17;21.00;99.90
14397;DHT22;50653;47.810;13.022;2023-09-19T10:47:45;21.00;99.90
14397;DHT22;50653;47.810;13.022;2023-09-19T10:50:20;21.10;99.90
14397;DHT22;50653;47.810;13.022;2023-09-19T10:52:48;21.10;99.90
14397;DHT22;50653;47.810;13.022;2023-09-19T10:55:18;21.20;99.90
14397;DHT22;50653;47.810;13.022;2023-09-19T10:57:45;21.20;99.90
14397;DHT22;50653;47.810;13.022;2023-09-19T11:00:12;21.30;99.90
14397;DHT22;50653;47.810;13.022;2023-09-19T11:05:35;21.50;99.90
14397;DHT22;50653;47.810;13.022;2023-09-19T11:08:07;21.50;99.90
14397;DHT22;50653;47.810;13.022;2023-09-19T11:10:49;21.50;99.90
14397;DHT22;50653;47.810;13.022;2023-09-19T11:13:26;21.60;99.90
14397;DHT22;50653;47.810;13.022;2023-09-19T11:16:02;21.60;99.90
14397;DHT22;50653;47.810;13.022;2023-09-19T11:26:48;21.70;99.90
14397;DHT22;50653;47.810;13.022;2023-09-19T11:29:31;21.80;99.90
14397;DHT22;50653;47.810;13.022;2023-09-19T11:31:58;21.70;99.90
14397;DHT22;50653;47.810;13.022;2023-09-19T11:40:06;21.60;99.90
14397;DHT22;50653;47.810;13.022;2023-09-19T11:42:46;21.50;99.90
14397;DHT22;50653;47.810;13.022;2023-09-19T11:48:13;21.60;99.90
14397;DHT22;50653;47.810;13.022;2023-09-19T11:50:42;21.70;99.90
14397;DHT22;50653;47.810;13.022;2023-09-19T11:53:12;21.70;99.90
14397;DHT22;50653;47.810;13.022;2023-09-19T11:55:40;21.60;99.90
14397;DHT22;50653;47.810;13.022;2023-09-19T11:58:08;21.60;99.90
14397;DHT22;50653;47.810;13.022;2023-09-19T12:00:35;21.60;99.90
14397;DHT22;50653;47.810;13.022;2023-09-19T12:03:09;21.60;99.90
14397;DHT22;50653;47.810;13.022;2023-09-19T12:05:35;21.70;99.90
14397;DHT22;50653;47.810;13.022;2023-09-19T12:08:07;21.70;99.90
14397;DHT22;50653;47.810;13.022;2023-09-19T12:10:46;21.70;99.90
14397;DHT22;50653;47.810;13.022;2023-09-19T12:13:18;21.80;99.90
14397;DHT22;50653;47.810;13.022;2023-09-19T12:15:45;21.80;99.90
14397;DHT22;50653;47.810;13.022;2023-09-19T12:18:31;21.70;99.90
14397;DHT22;50653;47.810;13.022;2023-09-19T12:20:57;21.60;99.90
14397;DHT22;50653;47.810;13.022;2023-09-19T12:23:24;21.60;99.90
14397;DHT22;50653;47.810;13.022;2023-09-19T12:25:51;21.50;99.90
14397;DHT22;50653;47.810;13.022;2023-09-19T12:28:21;21.40;99.90
14397;DHT22;50653;47.810;13.022;2023-09-19T12:30:49;21.40;99.90
14397;DHT22;50653;47.810;13.022;2023-09-19T12:33:25;21.30;99.90
14397;DHT22;50653;47.810;13.022;2023-09-19T12:35:51;21.20;99.90
14397;DHT22;50653;47.810;13.022;2023-09-19T12:38:26;21.20;99.90
14397;DHT22;50653;47.810;13.022;2023-09-19T12:40:56;21.30;99.90
14397;DHT22;50653;47.810;13.022;2023-09-19T12:43:44;21.30;99.90
14397;DHT22;50653;47.810;13.022;2023-09-19T12:46:10;21.30;99.90
14397;DHT22;50653;47.810;13.022;2023-09-19T12:48:36;21.30;99.90
14397;DHT22;50653;47.810;13.022;2023-09-19T12:51:12;21.30;99.90
14397;DHT22;50653;47.810;13.022;2023-09-19T12:53:39;21.30;99.90
14397;DHT22;50653;47.810;13.022;2023-09-19T12:56:17;21.40;99.90
14397;DHT22;50653;47.810;13.022;2023-09-19T13:01:31;21.60;99.90
14397;DHT22;50653;47.810;13.022;2023-09-19T13:04:17;21.60;99.90
14397;DHT22;50653;47.810;13.022;2023-09-19T13:06:49;21.60;99.90
14397;DHT22;50653;47.810;13.022;2023-09-19T13:09:21;21.60;99.90
14397;DHT22;50653;47.810;13.022;2023-09-19T13:11:48;21.60;99.90
14397;DHT22;50653;47.810;13.022;2023-09-19T13:14:24;21.90;99.90
14397;DHT22;50653;47.810;13.022;2023-09-19T13:22:40;21.90;99.90
14397;DHT22;50653;47.810;13.022;2023-09-19T13:25:16;21.90;99.90
14397;DHT22;50653;47.810;13.022;2023-09-19T13:27:53;21.90;99.90
14397;DHT22;50653;47.810;13.022;2023-09-19T13:30:21;21.90;99.90
14397;DHT22;50653;47.810;13.022;2023-09-19T13:32:47;21.90;99.90
14397;DHT22;50653;47.810;13.022;2023-09-19T13:35:14;21.70;99.90
14397;DHT22;50653;47.810;13.022;2023-09-19T13:37:41;21.70;99.90
14397;DHT22;50653;47.810;13.022;2023-09-19T13:40:11;21.70;99.90
14397;DHT22;50653;47.810;13.022;2023-09-19T13:42:37;21.70;99.90
14397;DHT22;50653;47.810;13.022;2023-09-19T13:45:03;21.80;99.90
14397;DHT22;50653;47.810;13.022;2023-09-19T13:47:32;22.00;99.90
14397;DHT22;50653;47.810;13.022;2023-09-19T13:50:02;22.10;99.90
14397;DHT22;50653;47.810;13.022;2023-09-19T13:52:57;22.00;99.90
14397;DHT22;50653;47.810;13.022;2023-09-19T13:55:23;22.20;99.90
14397;DHT22;50653;47.810;13.022;2023-09-19T13:57:50;22.20;99.90
14397;DHT22;50653;47.810;13.022;2023-09-19T14:00:20;22.30;99.90
14397;DHT22;50653;47.810;13.022;2023-09-19T14:02:58;22.40;99.90
14397;DHT22;50653;47.810;13.022;2023-09-19T14:09:03;22.30;99.90
14397;DHT22;50653;47.810;13.022;2023-09-19T14:11:35;22.50;99.90
14397;DHT22;50653;47.810;13.022;2023-09-19T14:14:01;22.50;99.90
14397;DHT22;50653;47.810;13.022;2023-09-19T14:16:26;22.30;99.90
14397;DHT22;50653;47.810;13.022;2023-09-19T14:18:55;22.40;99.90
14397;DHT22;50653;47.810;13.022;2023-09-19T14:21:21;22.50;99.90
14397;DHT22;50653;47.810;13.022;2023-09-19T14:23:46;22.50;99.90
14397;DHT22;50653;47.810;13.022;2023-09-19T14:26:12;22.50;99.90
14397;DHT22;50653;47.810;13.022;2023-09-19T14:28:39;22.40;99.90
14397;DHT22;50653;47.810;13.022;2023-09-19T14:31:09;22.40;99.90
14397;DHT22;50653;47.810;13.022;2023-09-19T14:33:35;22.20;99.90
14397;DHT22;50653;47.810;13.022;2023-09-19T14:36:05;22.20;99.90
14397;DHT22;50653;47.810;13.022;2023-09-19T14:38:37;22.20;99.90
14397;DHT22;50653;47.810;13.022;2023-09-19T14:41:05;22.30;99.90
14397;DHT22;50653;47.810;13.022;2023-09-19T14:43:33;22.30;99.90
14397;DHT22;50653;47.810;13.022;2023-09-19T14:46:06;22.40;99.90
14397;DHT22;50653;47.810;13.022;2023-09-19T14:48:38;22.50;99.90
14397;DHT22;50653;47.810;13.022;2023-09-19T14:51:06;22.60;99.90
14397;DHT22;50653;47.810;13.022;2023-09-19T14:53:34;22.70;99.90
14397;DHT22;50653;47.810;13.022;2023-09-19T14:56:04;22.80;99.90
14397;DHT22;50653;47.810;13.022;2023-09-19T14:58:31;22.80;99.90
14397;DHT22;50653;47.810;13.022;2023-09-19T15:01:07;22.60;99.90
14397;DHT22;50653;47.810;13.022;2023-09-19T15:03:33;22.60;99.90
14397;DHT22;50653;47.810;13.022;2023-09-19T15:06:01;22.80;99.90
14397;DHT22;50653;47.810;13.022;2023-09-19T15:08:27;22.80;99.90
14397;DHT22;50653;47.810;13.022;2023-09-19T15:10:53;22.80;99.90
14397;DHT22;50653;47.810;13.022;2023-09-19T15:13:20;22.70;99.90
14397;DHT22;50653;47.810;13.022;2023-09-19T15:15:46;22.70;99.90
14397;DHT22;50653;47.810;13.022;2023-09-19T15:18:14;22.80;99.90
14397;DHT22;50653;47.810;13.022;2023-09-19T15:20:44;22.80;99.90
14397;DHT22;50653;47.810;13.022;2023-09-19T15:23:10;22.80;99.90
14397;DHT22;50653;47.810;13.022;2023-09-19T15:25:36;22.70;99.90
14397;DHT22;50653;47.810;13.022;2023-09-19T15:28:02;22.70;99.90
14397;DHT22;50653;47.810;13.022;2023-09-19T15:30:39;22.70;99.90
14397;DHT22;50653;47.810;13.022;2023-09-19T15:33:07;22.70;99.90
14397;DHT22;50653;47.810;13.022;2023-09-19T15:35:33;22.60;99.90
14397;DHT22;50653;47.810;13.022;2023-09-19T15:37:59;22.60;99.90
14397;DHT22;50653;47.810;13.022;2023-09-19T15:40:34;22.40;99.90
14397;DHT22;50653;47.810;13.022;2023-09-19T15:46:27;22.30;99.90
14397;DHT22;50653;47.810;13.022;2023-09-19T15:49:02;22.20;99.90
14397;DHT22;50653;47.810;13.022;2023-09-19T15:56:24;22.20;99.90
14397;DHT22;50653;47.810;13.022;2023-09-19T16:02:57;22.10;99.90
14397;DHT22;50653;47.810;13.022;2023-09-19T16:06:19;22.20;99.90
14397;DHT22;50653;47.810;13.022;2023-09-19T16:09:53;22.20;99.90
14397;DHT22;50653;47.810;13.022;2023-09-19T16:19:58;22.10;99.90
14397;DHT22;50653;47.810;13.022;2023-09-19T16:22:41;22.10;99.90
14397;DHT22;50653;47.810;13.022;2023-09-19T16:25:12;22.00;99.90
14397;DHT22;50653;47.810;13.022;2023-09-19T16:27:59;22.00;99.90
14397;DHT22;50653;47.810;13.022;2023-09-19T16:30:58;22.00;99.90
14397;DHT22;50653;47.810;13.022;2023-09-19T16:33:38;21.90;99.90
14397;DHT22;50653;47.810;13.022;2023-09-19T16:36:15;21.90;99.90
14397;DHT22;50653;47.810;13.022;2023-09-19T16:39:03;21.90;99.90
14397;DHT22;50653;47.810;13.022;2023-09-19T16:41:33;21.80;99.90
14397;DHT22;50653;47.810;13.022;2023-09-19T16:44:03;21.80;99.90
14397;DHT22;50653;47.810;13.022;2023-09-19T16:46:34;21.80;99.90